Weatherford, OK (73096)

8:12 AM CST on December 04, 2016 (GMT -0600)
Clinton Municipal | | Change Station

Elev 1614 ft 35.54 °N, 98.93 °W | Updated -122 second ago

Overcast
Overcast
41 °F
Feels Like 39 °F
N
4
Wind Variable Wind from NNW

Today
High -- | Low -- °F
--% Chance of Precip.
Yesterday
High -- | Low -- °F
Precip. -- in
Pressure 30.08 in
Visibility -9999.0 miles
Clouds Overcast 2300 ft
Windchill 39 °F
Dew Point 39 °F
Humidity 93%
Rainfall 0.00 in
Snow Depth Not available.
7:28 AM 5:21 PM
Waxing Crescent, 23% visible
METAR KCLK 041415Z AUTO 33003KT OVC023 05/04 A3008 RMK AO2 PWINO
Pressure 30.08 in
Visibility -9999.0 miles
Clouds Overcast 2300 ft
Windchill 39 °F
Dew Point 39 °F
Humidity 93%
Rainfall 0.00 in
Snow Depth Not available.
7:28 AM 5:21 PM
Waxing Crescent, 23% visible
METAR KCLK 041415Z AUTO 33003KT OVC023 05/04 A3008 RMK AO2 PWINO

10-Day Weather Forecast

Almanac

Astronomy

Dec. 04, 2016 Rise Set
Actual Time
Civil Twilight
Nautical Twilight
Astronomical Twilight
Moon
Length of Visible Light
Length of Day
Tomorrow will be .
, % of the Moon is Illuminated

Today's Extremes

State Highs State Lows

Community

WunderPhotos

Upload Photos

1,955,598 photos uploaded!

WunderBlog® & News

Nearby

Air Quality

  Air Quality AQ Index Pollutant
Not available.

Snow Depth

Station Depth Elevation

Earthquake Activity

City Distance Mag. Time & Date
Minimum magnitude displayed is 2.5.

Coastal Water Temperatures

Place Temperature

Stations

Nearby Weather Stations

Station Location Temp. Windchill Dew Point Humidity Wind Precip. Elev Updated Type
                   

Watches & Warnings

There are currently no watches in effect.